sensor_id;sensor_type;location;lat;lon;timestamp;pressure;altitude;pressure_sealevel;temperature;humidity
61026;BME280;46911;32.650;-16.902;2023-01-30T00:02:03;102012.13;;;12.60;62.83
61026;BME280;46911;32.650;-16.902;2023-01-30T00:04:06;102004.13;;;12.59;62.70
61026;BME280;46911;32.650;-16.902;2023-01-30T00:06:07;102006.66;;;12.62;62.37
61026;BME280;46911;32.650;-16.902;2023-01-30T00:08:08;101995.44;;;12.55;62.47
61026;BME280;46911;32.650;-16.902;2023-01-30T00:10:09;101991.72;;;12.58;62.86
61026;BME280;46911;32.650;-16.902;2023-01-30T00:12:10;101996.47;;;12.68;62.82
61026;BME280;46911;32.650;-16.902;2023-01-30T00:14:13;102005.03;;;12.75;62.46
61026;BME280;46911;32.650;-16.902;2023-01-30T00:16:15;102010.63;;;12.86;62.54
61026;BME280;46911;32.650;-16.902;2023-01-30T00:18:16;102011.41;;;12.88;62.21
61026;BME280;46911;32.650;-16.902;2023-01-30T00:20:17;102013.19;;;12.88;61.78
61026;BME280;46911;32.650;-16.902;2023-01-30T00:22:20;102008.53;;;12.92;62.50
61026;BME280;46911;32.650;-16.902;2023-01-30T00:24:23;101995.69;;;12.82;62.19
61026;BME280;46911;32.650;-16.902;2023-01-30T00:26:27;102004.06;;;12.92;61.63
61026;BME280;46911;32.650;-16.902;2023-01-30T00:28:27;102010.78;;;12.99;61.61
61026;BME280;46911;32.650;-16.902;2023-01-30T00:30:29;101990.31;;;12.98;62.93
61026;BME280;46911;32.650;-16.902;2023-01-30T00:32:34;102003.97;;;12.94;62.87
61026;BME280;46911;32.650;-16.902;2023-01-30T00:34:35;102016.84;;;13.03;63.49
61026;BME280;46911;32.650;-16.902;2023-01-30T00:36:36;101999.56;;;12.93;63.93
61026;BME280;46911;32.650;-16.902;2023-01-30T00:38:37;102001.41;;;12.92;63.79
61026;BME280;46911;32.650;-16.902;2023-01-30T00:40:42;102009.34;;;12.94;64.06
61026;BME280;46911;32.650;-16.902;2023-01-30T00:42:43;102007.78;;;12.89;64.01
61026;BME280;46911;32.650;-16.902;2023-01-30T00:45:03;101986.09;;;12.78;64.34
61026;BME280;46911;32.650;-16.902;2023-01-30T00:47:27;102002.34;;;12.75;63.28
61026;BME280;46911;32.650;-16.902;2023-01-30T00:49:27;101991.72;;;12.73;63.67
61026;BME280;46911;32.650;-16.902;2023-01-30T00:51:33;101996.09;;;12.90;63.64
61026;BME280;46911;32.650;-16.902;2023-01-30T00:53:34;102004.22;;;12.89;63.80
61026;BME280;46911;32.650;-16.902;2023-01-30T00:55:35;102001.91;;;12.83;62.43
61026;BME280;46911;32.650;-16.902;2023-01-30T00:57:39;101971.94;;;12.76;62.34
61026;BME280;46911;32.650;-16.902;2023-01-30T00:59:40;101978.66;;;12.83;62.42
61026;BME280;46911;32.650;-16.902;2023-01-30T01:01:41;101982.28;;;12.82;62.91
61026;BME280;46911;32.650;-16.902;2023-01-30T01:03:44;101978.38;;;12.88;65.30
61026;BME280;46911;32.650;-16.902;2023-01-30T01:05:50;101959.50;;;12.75;65.99
61026;BME280;46911;32.650;-16.902;2023-01-30T01:07:51;101978.16;;;12.77;66.21
61026;BME280;46911;32.650;-16.902;2023-01-30T01:09:52;101962.81;;;12.64;65.45
61026;BME280;46911;32.650;-16.902;2023-01-30T01:11:52;101978.69;;;12.67;65.04
61026;BME280;46911;32.650;-16.902;2023-01-30T01:13:55;101966.25;;;12.66;64.88
61026;BME280;46911;32.650;-16.902;2023-01-30T01:15:57;101950.34;;;12.63;64.89
61026;BME280;46911;32.650;-16.902;2023-01-30T01:17:58;101952.75;;;12.68;63.96
61026;BME280;46911;32.650;-16.902;2023-01-30T01:20:00;101954.16;;;12.75;63.69
61026;BME280;46911;32.650;-16.902;2023-01-30T01:22:01;101956.41;;;12.83;62.85
61026;BME280;46911;32.650;-16.902;2023-01-30T01:24:04;101954.28;;;12.88;62.05
61026;BME280;46911;32.650;-16.902;2023-01-30T01:26:08;101944.56;;;12.87;62.79
61026;BME280;46911;32.650;-16.902;2023-01-30T01:28:09;101956.72;;;12.93;63.64
61026;BME280;46911;32.650;-16.902;2023-01-30T01:30:15;101956.03;;;12.89;64.00
61026;BME280;46911;32.650;-16.902;2023-01-30T01:32:17;101942.13;;;12.82;63.54
61026;BME280;46911;32.650;-16.902;2023-01-30T01:34:22;101954.38;;;12.86;63.40
61026;BME280;46911;32.650;-16.902;2023-01-30T01:36:24;101931.31;;;12.84;63.28
61026;BME280;46911;32.650;-16.902;2023-01-30T01:38:24;101934.50;;;12.90;62.91
61026;BME280;46911;32.650;-16.902;2023-01-30T01:40:27;101947.31;;;13.16;61.26
61026;BME280;46911;32.650;-16.902;2023-01-30T01:42:47;101933.34;;;13.11;60.64
61026;BME280;46911;32.650;-16.902;2023-01-30T01:45:01;101954.66;;;13.28;60.00
61026;BME280;46911;32.650;-16.902;2023-01-30T01:47:03;101939.66;;;13.40;59.92
61026;BME280;46911;32.650;-16.902;2023-01-30T01:49:11;101928.28;;;13.36;60.35
61026;BME280;46911;32.650;-16.902;2023-01-30T01:51:28;101898.38;;;13.28;60.16
61026;BME280;46911;32.650;-16.902;2023-01-30T01:53:57;101923.31;;;13.45;60.17
61026;BME280;46911;32.650;-16.902;2023-01-30T01:56:04;101928.38;;;13.49;60.57
61026;BME280;46911;32.650;-16.902;2023-01-30T01:58:17;101940.84;;;13.50;61.00
61026;BME280;46911;32.650;-16.902;2023-01-30T02:00:24;101924.66;;;13.37;60.98
61026;BME280;46911;32.650;-16.902;2023-01-30T02:02:25;101944.84;;;13.43;60.05
61026;BME280;46911;32.650;-16.902;2023-01-30T02:04:29;101941.41;;;13.55;58.19
61026;BME280;46911;32.650;-16.902;2023-01-30T02:06:49;101936.34;;;13.51;57.96
61026;BME280;46911;32.650;-16.902;2023-01-30T02:08:53;101942.00;;;13.61;57.58
61026;BME280;46911;32.650;-16.902;2023-01-30T02:11:08;101930.50;;;13.59;56.63
61026;BME280;46911;32.650;-16.902;2023-01-30T02:13:11;101941.94;;;13.77;56.29
61026;BME280;46911;32.650;-16.902;2023-01-30T02:15:12;101936.75;;;13.73;56.95
61026;BME280;46911;32.650;-16.902;2023-01-30T02:17:13;101940.00;;;13.79;57.28
61026;BME280;46911;32.650;-16.902;2023-01-30T02:21:50;101926.59;;;13.79;57.81
61026;BME280;46911;32.650;-16.902;2023-01-30T02:32:07;101926.00;;;13.45;58.97
61026;BME280;46911;32.650;-16.902;2023-01-30T02:34:37;101932.25;;;13.29;59.41
61026;BME280;46911;32.650;-16.902;2023-01-30T02:39:04;101932.84;;;13.04;60.86
61026;BME280;46911;32.650;-16.902;2023-01-30T02:46:00;101931.69;;;12.78;61.93
61026;BME280;46911;32.650;-16.902;2023-01-30T02:48:05;101936.19;;;12.61;61.40
61026;BME280;46911;32.650;-16.902;2023-01-30T02:50:15;101934.22;;;12.49;61.93
61026;BME280;46911;32.650;-16.902;2023-01-30T02:52:19;101932.44;;;12.49;61.77
61026;BME280;46911;32.650;-16.902;2023-01-30T02:54:22;101943.03;;;12.51;62.09
61026;BME280;46911;32.650;-16.902;2023-01-30T02:56:23;101931.31;;;12.37;62.17
61026;BME280;46911;32.650;-16.902;2023-01-30T02:58:26;101946.03;;;12.29;62.78
61026;BME280;46911;32.650;-16.902;2023-01-30T03:08:46;101945.50;;;11.88;65.82
61026;BME280;46911;32.650;-16.902;2023-01-30T03:15:24;101959.56;;;11.76;66.11
61026;BME280;46911;32.650;-16.902;2023-01-30T03:17:31;101956.97;;;11.75;66.27
61026;BME280;46911;32.650;-16.902;2023-01-30T03:19:33;101944.16;;;11.64;66.20
61026;BME280;46911;32.650;-16.902;2023-01-30T03:21:42;101960.03;;;11.67;66.35
61026;BME280;46911;32.650;-16.902;2023-01-30T03:23:48;101957.59;;;11.62;65.89
61026;BME280;46911;32.650;-16.902;2023-01-30T03:25:52;101954.47;;;11.54;66.14
61026;BME280;46911;32.650;-16.902;2023-01-30T03:27:54;101958.41;;;11.47;66.48
61026;BME280;46911;32.650;-16.902;2023-01-30T03:29:56;101967.66;;;11.39;67.20
61026;BME280;46911;32.650;-16.902;2023-01-30T03:32:00;101977.31;;;11.42;67.51
61026;BME280;46911;32.650;-16.902;2023-01-30T03:34:00;101979.44;;;11.35;68.01
61026;BME280;46911;32.650;-16.902;2023-01-30T03:36:08;101978.97;;;11.27;68.26
61026;BME280;46911;32.650;-16.902;2023-01-30T03:38:12;101964.44;;;11.15;68.49
61026;BME280;46911;32.650;-16.902;2023-01-30T03:40:15;101977.00;;;11.13;69.25
61026;BME280;46911;32.650;-16.902;2023-01-30T03:42:19;101982.34;;;11.13;69.88
61026;BME280;46911;32.650;-16.902;2023-01-30T03:44:21;101981.09;;;11.03;70.17
61026;BME280;46911;32.650;-16.902;2023-01-30T03:46:24;101986.03;;;10.93;70.77
61026;BME280;46911;32.650;-16.902;2023-01-30T03:48:25;101969.72;;;10.80;70.74
61026;BME280;46911;32.650;-16.902;2023-01-30T03:50:31;101973.50;;;10.76;71.04
61026;BME280;46911;32.650;-16.902;2023-01-30T03:52:33;101964.69;;;10.74;71.26
61026;BME280;46911;32.650;-16.902;2023-01-30T03:54:35;101964.00;;;10.70;71.40
61026;BME280;46911;32.650;-16.902;2023-01-30T03:56:42;101985.50;;;10.85;71.42
61026;BME280;46911;32.650;-16.902;2023-01-30T03:58:43;101990.78;;;10.86;71.42
61026;BME280;46911;32.650;-16.902;2023-01-30T04:00:51;101984.88;;;10.80;71.45
61026;BME280;46911;32.650;-16.902;2023-01-30T04:02:52;101982.28;;;10.78;71.78
61026;BME280;46911;32.650;-16.902;2023-01-30T04:04:54;101976.44;;;10.70;71.57
61026;BME280;46911;32.650;-16.902;2023-01-30T04:06:57;101994.13;;;10.72;71.85
61026;BME280;46911;32.650;-16.902;2023-01-30T04:08:59;101994.28;;;10.69;71.81
61026;BME280;46911;32.650;-16.902;2023-01-30T04:11:16;101977.91;;;10.58;71.48
61026;BME280;46911;32.650;-16.902;2023-01-30T04:13:22;101980.94;;;10.69;71.11
61026;BME280;46911;32.650;-16.902;2023-01-30T04:15:22;101972.44;;;10.61;71.32
61026;BME280;46911;32.650;-16.902;2023-01-30T04:17:44;101986.34;;;10.68;71.13
61026;BME280;46911;32.650;-16.902;2023-01-30T04:20:02;101996.78;;;10.72;71.25
61026;BME280;46911;32.650;-16.902;2023-01-30T04:22:06;101997.16;;;10.84;70.83
61026;BME280;46911;32.650;-16.902;2023-01-30T04:24:10;101992.06;;;10.97;70.27
61026;BME280;46911;32.650;-16.902;2023-01-30T04:26:13;101993.34;;;11.07;69.79
61026;BME280;46911;32.650;-16.902;2023-01-30T04:28:15;101983.28;;;11.12;69.39
61026;BME280;46911;32.650;-16.902;2023-01-30T04:30:17;101980.47;;;11.15;69.30
61026;BME280;46911;32.650;-16.902;2023-01-30T04:32:25;101986.22;;;11.25;69.03
61026;BME280;46911;32.650;-16.902;2023-01-30T04:34:27;101984.63;;;11.21;68.67
61026;BME280;46911;32.650;-16.902;2023-01-30T04:36:28;101974.56;;;11.26;68.54
61026;BME280;46911;32.650;-16.902;2023-01-30T04:38:31;101982.03;;;11.37;68.15
61026;BME280;46911;32.650;-16.902;2023-01-30T04:40:32;101972.06;;;11.41;67.98
61026;BME280;46911;32.650;-16.902;2023-01-30T04:42:34;101980.00;;;11.42;67.83
61026;BME280;46911;32.650;-16.902;2023-01-30T04:44:57;101976.22;;;11.46;67.16
61026;BME280;46911;32.650;-16.902;2023-01-30T04:47:02;101971.97;;;11.42;67.50
61026;BME280;46911;32.650;-16.902;2023-01-30T04:49:05;101982.19;;;11.51;67.69
61026;BME280;46911;32.650;-16.902;2023-01-30T04:51:12;101972.22;;;11.55;67.53
61026;BME280;46911;32.650;-16.902;2023-01-30T04:53:16;101971.44;;;11.70;66.36
61026;BME280;46911;32.650;-16.902;2023-01-30T04:55:20;101962.44;;;11.71;65.97
61026;BME280;46911;32.650;-16.902;2023-01-30T04:57:21;101994.13;;;11.97;65.50
61026;BME280;46911;32.650;-16.902;2023-01-30T04:59:22;101985.69;;;12.04;65.37
61026;BME280;46911;32.650;-16.902;2023-01-30T05:01:35;101989.63;;;12.31;62.60
61026;BME280;46911;32.650;-16.902;2023-01-30T05:03:36;101996.28;;;12.39;62.52
61026;BME280;46911;32.650;-16.902;2023-01-30T05:05:37;101977.53;;;12.39;62.38
61026;BME280;46911;32.650;-16.902;2023-01-30T05:07:44;101984.88;;;12.52;62.64
61026;BME280;46911;32.650;-16.902;2023-01-30T05:09:45;101990.94;;;12.55;62.60
61026;BME280;46911;32.650;-16.902;2023-01-30T05:11:49;101991.47;;;12.62;62.27
61026;BME280;46911;32.650;-16.902;2023-01-30T05:13:50;101973.66;;;12.61;62.19
61026;BME280;46911;32.650;-16.902;2023-01-30T05:15:51;101976.28;;;12.63;62.35
61026;BME280;46911;32.650;-16.902;2023-01-30T05:17:52;101984.03;;;12.67;62.36
61026;BME280;46911;32.650;-16.902;2023-01-30T05:19:55;101989.81;;;12.76;62.17
61026;BME280;46911;32.650;-16.902;2023-01-30T05:21:58;102000.09;;;12.83;62.20
61026;BME280;46911;32.650;-16.902;2023-01-30T05:24:02;101980.66;;;12.80;62.04
61026;BME280;46911;32.650;-16.902;2023-01-30T05:26:03;101979.47;;;12.85;62.29
61026;BME280;46911;32.650;-16.902;2023-01-30T05:28:07;101985.47;;;12.89;62.34
61026;BME280;46911;32.650;-16.902;2023-01-30T05:30:08;101970.53;;;12.85;62.50
61026;BME280;46911;32.650;-16.902;2023-01-30T05:32:12;101987.03;;;12.93;62.65
61026;BME280;46911;32.650;-16.902;2023-01-30T05:34:16;101981.25;;;12.85;62.75
61026;BME280;46911;32.650;-16.902;2023-01-30T05:36:19;101995.75;;;12.97;62.79
61026;BME280;46911;32.650;-16.902;2023-01-30T05:38:22;101987.81;;;12.95;63.07
61026;BME280;46911;32.650;-16.902;2023-01-30T05:40:25;101971.06;;;12.92;63.07
61026;BME280;46911;32.650;-16.902;2023-01-30T05:42:31;101979.50;;;13.00;63.23
61026;BME280;46911;32.650;-16.902;2023-01-30T05:44:32;101978.84;;;12.96;63.48
61026;BME280;46911;32.650;-16.902;2023-01-30T05:46:33;101990.91;;;13.03;63.93
61026;BME280;46911;32.650;-16.902;2023-01-30T05:48:36;101981.56;;;12.95;64.30
61026;BME280;46911;32.650;-16.902;2023-01-30T05:50:37;102000.06;;;12.99;64.80
61026;BME280;46911;32.650;-16.902;2023-01-30T05:52:38;101994.22;;;12.93;65.44
61026;BME280;46911;32.650;-16.902;2023-01-30T05:54:41;102000.94;;;13.00;66.13
61026;BME280;46911;32.650;-16.902;2023-01-30T05:56:42;102011.63;;;13.00;66.16
61026;BME280;46911;32.650;-16.902;2023-01-30T05:58:50;102011.81;;;12.97;66.94
61026;BME280;46911;32.650;-16.902;2023-01-30T06:00:52;102011.63;;;13.00;67.49
61026;BME280;46911;32.650;-16.902;2023-01-30T06:02:53;102010.97;;;12.96;67.70
61026;BME280;46911;32.650;-16.902;2023-01-30T06:04:54;102014.59;;;12.95;68.02
61026;BME280;46911;32.650;-16.902;2023-01-30T06:06:54;102010.72;;;12.85;69.02
61026;BME280;46911;32.650;-16.902;2023-01-30T06:08:55;102010.09;;;12.80;69.15
61026;BME280;46911;32.650;-16.902;2023-01-30T06:11:08;102028.75;;;12.81;69.87
61026;BME280;46911;32.650;-16.902;2023-01-30T06:13:11;102022.72;;;12.78;70.42
61026;BME280;46911;32.650;-16.902;2023-01-30T06:15:14;102011.22;;;12.60;70.92
61026;BME280;46911;32.650;-16.902;2023-01-30T06:17:15;102015.91;;;12.56;70.73
61026;BME280;46911;32.650;-16.902;2023-01-30T06:19:16;102039.72;;;12.61;70.80
61026;BME280;46911;32.650;-16.902;2023-01-30T06:21:17;102020.03;;;12.46;70.98
61026;BME280;46911;32.650;-16.902;2023-01-30T06:23:23;102026.25;;;12.46;70.56
61026;BME280;46911;32.650;-16.902;2023-01-30T06:25:27;102034.66;;;12.56;69.81
61026;BME280;46911;32.650;-16.902;2023-01-30T06:27:30;102034.56;;;12.58;69.61
61026;BME280;46911;32.650;-16.902;2023-01-30T06:29:31;102011.66;;;12.52;69.57
61026;BME280;46911;32.650;-16.902;2023-01-30T06:31:34;102024.09;;;12.53;69.30
61026;BME280;46911;32.650;-16.902;2023-01-30T06:33:35;102026.31;;;12.45;69.38
61026;BME280;46911;32.650;-16.902;2023-01-30T06:35:37;102032.53;;;12.45;69.14
61026;BME280;46911;32.650;-16.902;2023-01-30T06:37:38;102042.06;;;12.51;69.32
61026;BME280;46911;32.650;-16.902;2023-01-30T06:39:42;102043.09;;;12.48;69.28
61026;BME280;46911;32.650;-16.902;2023-01-30T06:41:43;102046.44;;;12.52;69.49
61026;BME280;46911;32.650;-16.902;2023-01-30T06:43:45;102051.97;;;12.49;69.17
61026;BME280;46911;32.650;-16.902;2023-01-30T06:45:46;102013.19;;;12.24;68.97
61026;BME280;46911;32.650;-16.902;2023-01-30T06:47:49;102055.75;;;12.45;69.16
61026;BME280;46911;32.650;-16.902;2023-01-30T06:49:51;102055.00;;;12.43;69.33
61026;BME280;46911;32.650;-16.902;2023-01-30T06:51:54;102056.97;;;12.39;69.48
61026;BME280;46911;32.650;-16.902;2023-01-30T06:53:55;102056.88;;;12.41;69.69
61026;BME280;46911;32.650;-16.902;2023-01-30T06:55:57;102058.63;;;12.42;69.44
61026;BME280;46911;32.650;-16.902;2023-01-30T07:00:06;102065.72;;;12.43;68.77
61026;BME280;46911;32.650;-16.902;2023-01-30T07:02:11;102072.75;;;12.44;68.74
61026;BME280;46911;32.650;-16.902;2023-01-30T07:04:12;102052.81;;;12.33;68.67
61026;BME280;46911;32.650;-16.902;2023-01-30T07:06:13;102052.88;;;12.32;68.47
61026;BME280;46911;32.650;-16.902;2023-01-30T07:08:17;102056.09;;;12.38;68.42
61026;BME280;46911;32.650;-16.902;2023-01-30T07:10:18;102047.53;;;12.32;68.53
61026;BME280;46911;32.650;-16.902;2023-01-30T07:12:24;102068.53;;;12.39;68.48
61026;BME280;46911;32.650;-16.902;2023-01-30T07:14:25;102041.66;;;12.25;68.86
61026;BME280;46911;32.650;-16.902;2023-01-30T07:16:26;102062.63;;;12.33;68.81
61026;BME280;46911;32.650;-16.902;2023-01-30T07:18:28;102056.53;;;12.31;68.64
61026;BME280;46911;32.650;-16.902;2023-01-30T07:20:29;102065.66;;;12.27;68.36
61026;BME280;46911;32.650;-16.902;2023-01-30T07:22:30;102061.34;;;12.24;68.16
61026;BME280;46911;32.650;-16.902;2023-01-30T07:24:34;102068.56;;;12.22;68.19
61026;BME280;46911;32.650;-16.902;2023-01-30T07:26:37;102081.00;;;12.23;68.44
61026;BME280;46911;32.650;-16.902;2023-01-30T07:28:38;102079.59;;;12.16;68.20
61026;BME280;46911;32.650;-16.902;2023-01-30T07:30:41;102070.00;;;12.12;68.13
61026;BME280;46911;32.650;-16.902;2023-01-30T07:32:52;102072.84;;;12.09;68.37
61026;BME280;46911;32.650;-16.902;2023-01-30T07:34:54;102063.66;;;11.97;67.70
61026;BME280;46911;32.650;-16.902;2023-01-30T07:36:57;102072.47;;;11.99;67.85
61026;BME280;46911;32.650;-16.902;2023-01-30T07:39:00;102067.03;;;12.00;67.64
61026;BME280;46911;32.650;-16.902;2023-01-30T07:41:04;102067.66;;;12.05;67.48
61026;BME280;46911;32.650;-16.902;2023-01-30T07:43:07;102067.81;;;12.02;67.65
61026;BME280;46911;32.650;-16.902;2023-01-30T07:45:10;102059.78;;;11.85;67.75
61026;BME280;46911;32.650;-16.902;2023-01-30T07:47:14;102073.00;;;11.88;67.90
61026;BME280;46911;32.650;-16.902;2023-01-30T07:49:18;102064.56;;;11.78;68.13
61026;BME280;46911;32.650;-16.902;2023-01-30T07:51:21;102074.31;;;11.79;68.15
61026;BME280;46911;32.650;-16.902;2023-01-30T07:53:22;102070.72;;;11.80;68.41
61026;BME280;46911;32.650;-16.902;2023-01-30T07:55:23;102058.84;;;11.68;68.40
61026;BME280;46911;32.650;-16.902;2023-01-30T07:57:24;102068.72;;;11.66;68.99
61026;BME280;46911;32.650;-16.902;2023-01-30T07:59:25;102061.25;;;11.55;69.17
61026;BME280;46911;32.650;-16.902;2023-01-30T08:01:29;102055.44;;;11.47;69.53
61026;BME280;46911;32.650;-16.902;2023-01-30T08:03:30;102074.94;;;11.49;69.45
61026;BME280;46911;32.650;-16.902;2023-01-30T08:05:33;102068.63;;;11.50;69.53
61026;BME280;46911;32.650;-16.902;2023-01-30T08:07:34;102058.66;;;11.36;69.75
61026;BME280;46911;32.650;-16.902;2023-01-30T08:09:35;102057.09;;;11.32;69.99
61026;BME280;46911;32.650;-16.902;2023-01-30T08:11:36;102067.22;;;11.26;70.21
61026;BME280;46911;32.650;-16.902;2023-01-30T08:13:37;102066.91;;;11.32;69.57
61026;BME280;46911;32.650;-16.902;2023-01-30T08:15:42;102072.31;;;11.30;69.14
61026;BME280;46911;32.650;-16.902;2023-01-30T08:17:43;102063.16;;;11.36;68.77
61026;BME280;46911;32.650;-16.902;2023-01-30T08:19:49;102074.63;;;11.55;68.09
61026;BME280;46911;32.650;-16.902;2023-01-30T08:21:52;102071.25;;;11.52;67.84
61026;BME280;46911;32.650;-16.902;2023-01-30T08:23:54;102072.59;;;11.61;67.38
61026;BME280;46911;32.650;-16.902;2023-01-30T08:25:56;102061.97;;;11.59;66.98
61026;BME280;46911;32.650;-16.902;2023-01-30T08:27:58;102059.84;;;11.66;66.18
61026;BME280;46911;32.650;-16.902;2023-01-30T08:29:59;102063.88;;;11.75;65.42
61026;BME280;46911;32.650;-16.902;2023-01-30T08:32:01;102056.53;;;11.78;64.67
61026;BME280;46911;32.650;-16.902;2023-01-30T08:34:01;102077.25;;;11.92;64.66
61026;BME280;46911;32.650;-16.902;2023-01-30T08:36:03;102068.91;;;11.98;64.51
61026;BME280;46911;32.650;-16.902;2023-01-30T08:38:05;102076.31;;;12.11;63.86
61026;BME280;46911;32.650;-16.902;2023-01-30T08:40:09;102054.75;;;12.14;63.36
61026;BME280;46911;32.650;-16.902;2023-01-30T08:42:12;102074.63;;;12.26;63.27
61026;BME280;46911;32.650;-16.902;2023-01-30T08:44:14;102073.97;;;12.38;63.23
61026;BME280;46911;32.650;-16.902;2023-01-30T08:46:15;102065.72;;;12.43;62.66
61026;BME280;46911;32.650;-16.902;2023-01-30T08:48:19;102077.47;;;12.56;62.45
61026;BME280;46911;32.650;-16.902;2023-01-30T08:50:20;102081.72;;;12.60;61.98
61026;BME280;46911;32.650;-16.902;2023-01-30T08:52:21;102077.28;;;12.59;61.99
61026;BME280;46911;32.650;-16.902;2023-01-30T08:54:27;102085.31;;;12.59;62.18
61026;BME280;46911;32.650;-16.902;2023-01-30T08:56:28;102080.59;;;12.64;61.93
61026;BME280;46911;32.650;-16.902;2023-01-30T08:58:29;102085.31;;;12.59;62.01
61026;BME280;46911;32.650;-16.902;2023-01-30T09:00:30;102089.88;;;12.57;61.60
61026;BME280;46911;32.650;-16.902;2023-01-30T09:02:31;102077.09;;;12.46;61.72
61026;BME280;46911;32.650;-16.902;2023-01-30T09:04:32;102091.63;;;12.58;61.31
61026;BME280;46911;32.650;-16.902;2023-01-30T09:06:33;102078.66;;;12.50;61.29
61026;BME280;46911;32.650;-16.902;2023-01-30T09:08:34;102096.22;;;12.56;61.38
61026;BME280;46911;32.650;-16.902;2023-01-30T09:10:35;102093.59;;;12.54;61.39
61026;BME280;46911;32.650;-16.902;2023-01-30T09:12:41;102103.88;;;12.62;61.51
61026;BME280;46911;32.650;-16.902;2023-01-30T09:14:44;102099.31;;;12.64;61.61
61026;BME280;46911;32.650;-16.902;2023-01-30T09:16:46;102100.88;;;12.68;61.59
61026;BME280;46911;32.650;-16.902;2023-01-30T09:18:47;102099.69;;;12.74;61.36
61026;BME280;46911;32.650;-16.902;2023-01-30T09:20:50;102096.66;;;12.80;61.50
61026;BME280;46911;32.650;-16.902;2023-01-30T09:22:51;102086.81;;;12.81;61.25
61026;BME280;46911;32.650;-16.902;2023-01-30T09:24:52;102097.72;;;12.94;61.32
61026;BME280;46911;32.650;-16.902;2023-01-30T09:26:54;102109.56;;;13.05;61.33
61026;BME280;46911;32.650;-16.902;2023-01-30T09:28:57;102098.22;;;13.16;61.23
61026;BME280;46911;32.650;-16.902;2023-01-30T09:31:00;102089.72;;;13.24;61.22
61026;BME280;46911;32.650;-16.902;2023-01-30T09:33:01;102106.94;;;13.52;60.89
61026;BME280;46911;32.650;-16.902;2023-01-30T09:35:06;102098.69;;;13.71;58.77
61026;BME280;46911;32.650;-16.902;2023-01-30T09:37:10;102102.63;;;14.10;57.99
61026;BME280;46911;32.650;-16.902;2023-01-30T09:39:11;102086.47;;;14.40;57.77
61026;BME280;46911;32.650;-16.902;2023-01-30T09:43:51;102105.91;;;15.29;56.24
61026;BME280;46911;32.650;-16.902;2023-01-30T09:57:23;102127.44;;;16.74;52.07
61026;BME280;46911;32.650;-16.902;2023-01-30T09:59:31;102121.00;;;16.89;50.81
61026;BME280;46911;32.650;-16.902;2023-01-30T10:02:00;102115.47;;;17.04;51.08
61026;BME280;46911;32.650;-16.902;2023-01-30T10:04:20;102124.84;;;17.35;50.24
61026;BME280;46911;32.650;-16.902;2023-01-30T10:06:22;102123.97;;;17.59;49.15
61026;BME280;46911;32.650;-16.902;2023-01-30T10:13:32;102140.28;;;18.17;47.37
61026;BME280;46911;32.650;-16.902;2023-01-30T10:15:52;102146.31;;;18.44;45.73
61026;BME280;46911;32.650;-16.902;2023-01-30T10:20:28;102141.47;;;19.05;44.95
61026;BME280;46911;32.650;-16.902;2023-01-30T10:27:20;102149.28;;;18.52;43.21
61026;BME280;46911;32.650;-16.902;2023-01-30T10:29:34;102153.72;;;18.42;43.21
61026;BME280;46911;32.650;-16.902;2023-01-30T10:31:46;102160.56;;;18.34;43.39
61026;BME280;46911;32.650;-16.902;2023-01-30T10:33:58;102155.06;;;18.36;43.60
61026;BME280;46911;32.650;-16.902;2023-01-30T10:36:09;102150.50;;;18.36;43.97
61026;BME280;46911;32.650;-16.902;2023-01-30T10:38:20;102163.91;;;18.49;44.26
61026;BME280;46911;32.650;-16.902;2023-01-30T10:40:40;102156.66;;;18.50;44.79
61026;BME280;46911;32.650;-16.902;2023-01-30T10:45:15;102171.75;;;18.41;44.65
61026;BME280;46911;32.650;-16.902;2023-01-30T10:51:49;102176.16;;;17.95;45.90
61026;BME280;46911;32.650;-16.902;2023-01-30T10:53:59;102184.19;;;17.84;46.15
61026;BME280;46911;32.650;-16.902;2023-01-30T10:56:29;102187.19;;;17.68;46.69
61026;BME280;46911;32.650;-16.902;2023-01-30T11:00:51;102197.47;;;17.26;47.14
61026;BME280;46911;32.650;-16.902;2023-01-30T11:03:19;102192.63;;;17.18;47.04
61026;BME280;46911;32.650;-16.902;2023-01-30T11:05:26;102194.69;;;17.14;47.65
61026;BME280;46911;32.650;-16.902;2023-01-30T11:07:32;102207.00;;;17.18;48.73
61026;BME280;46911;32.650;-16.902;2023-01-30T11:09:46;102207.13;;;17.04;48.31
61026;BME280;46911;32.650;-16.902;2023-01-30T11:11:50;102211.00;;;17.00;48.74
61026;BME280;46911;32.650;-16.902;2023-01-30T11:14:06;102209.16;;;17.00;48.75
61026;BME280;46911;32.650;-16.902;2023-01-30T11:16:10;102216.06;;;17.04;50.40
61026;BME280;46911;32.650;-16.902;2023-01-30T11:18:15;102205.28;;;17.04;51.00
61026;BME280;46911;32.650;-16.902;2023-01-30T11:20:21;102196.09;;;17.07;48.91
61026;BME280;46911;32.650;-16.902;2023-01-30T11:22:29;102200.00;;;17.16;49.00
61026;BME280;46911;32.650;-16.902;2023-01-30T11:25:12;102200.34;;;16.98;47.64
61026;BME280;46911;32.650;-16.902;2023-01-30T11:27:27;102199.22;;;17.01;47.90
61026;BME280;46911;32.650;-16.902;2023-01-30T11:30:18;102213.53;;;17.27;47.73
61026;BME280;46911;32.650;-16.902;2023-01-30T11:32:26;102193.06;;;17.49;47.53
61026;BME280;46911;32.650;-16.902;2023-01-30T11:34:28;102213.16;;;18.06;46.45
61026;BME280;46911;32.650;-16.902;2023-01-30T11:36:33;102202.34;;;18.42;45.58
61026;BME280;46911;32.650;-16.902;2023-01-30T11:38:36;102193.94;;;18.92;44.39
61026;BME280;46911;32.650;-16.902;2023-01-30T11:40:40;102190.25;;;19.15;43.02
61026;BME280;46911;32.650;-16.902;2023-01-30T11:43:01;102192.47;;;19.65;42.17
61026;BME280;46911;32.650;-16.902;2023-01-30T11:45:02;102192.28;;;19.89;40.70